createdAt,value
2023-05-17T00:00:54.208Z,500.00
2023-05-17T00:01:54.200Z,434.00
2023-05-17T00:02:54.247Z,404.00
2023-05-17T00:03:54.172Z,400.00
2023-05-17T00:04:54.252Z,400.00
2023-05-17T00:05:54.160Z,413.00
2023-05-17T00:06:54.130Z,434.00
2023-05-17T00:07:54.121Z,455.00
2023-05-17T00:08:54.120Z,492.00
2023-05-17T00:09:54.103Z,500.00
2023-05-17T00:10:54.089Z,500.00
2023-05-17T00:11:54.162Z,504.00
2023-05-17T00:12:54.031Z,500.00
2023-05-17T00:13:54.065Z,500.00
2023-05-17T00:14:54.005Z,500.00
2023-05-17T00:15:53.989Z,501.00
2023-05-17T00:16:53.997Z,500.00
2023-05-17T00:17:54.047Z,500.00
2023-05-17T00:18:54.059Z,500.00
2023-05-17T00:19:53.967Z,504.00
2023-05-17T00:20:53.959Z,500.00
2023-05-17T00:21:53.951Z,500.00
2023-05-17T00:22:53.954Z,502.00
2023-05-17T00:23:53.967Z,500.00
2023-05-17T00:24:53.934Z,500.00
2023-05-17T00:25:53.921Z,500.00
2023-05-17T00:26:53.956Z,500.00
2023-05-17T00:27:54.042Z,500.00
2023-05-17T00:28:53.945Z,501.00
2023-05-17T00:29:53.941Z,501.00
2023-05-17T00:30:53.931Z,505.00
2023-05-17T00:31:53.929Z,501.00
2023-05-17T00:32:53.972Z,505.00
2023-05-17T00:33:53.891Z,505.00
2023-05-17T00:34:53.917Z,501.00
2023-05-17T00:35:53.900Z,501.00
2023-05-17T00:36:53.858Z,501.00
2023-05-17T00:37:53.850Z,500.00
2023-05-17T00:38:53.823Z,504.00
2023-05-17T00:39:53.817Z,499.00
2023-05-17T00:40:53.825Z,509.00
2023-05-17T00:41:53.829Z,503.00
2023-05-17T00:42:53.847Z,504.00
2023-05-17T00:43:54.095Z,509.00
2023-05-17T00:44:53.878Z,500.00
2023-05-17T00:45:53.780Z,503.00
2023-05-17T00:46:53.772Z,505.00
2023-05-17T00:47:53.832Z,500.00
2023-05-17T00:48:53.721Z,501.00
2023-05-17T00:49:53.720Z,503.00
2023-05-17T00:50:53.708Z,504.00
2023-05-17T00:51:53.664Z,502.00
2023-05-17T00:52:53.657Z,506.00
2023-05-17T00:53:53.638Z,500.00
2023-05-17T00:54:53.650Z,500.00
2023-05-17T00:55:53.615Z,501.00
2023-05-17T00:56:53.587Z,500.00
2023-05-17T00:57:53.577Z,500.00
2023-05-17T00:59:00.678Z,509.00
2023-05-17T00:59:53.567Z,509.00
2023-05-17T01:00:53.560Z,510.00
2023-05-17T01:01:53.521Z,507.00
2023-05-17T01:02:53.572Z,503.00
2023-05-17T01:03:53.700Z,500.00
2023-05-17T01:04:53.523Z,500.00
2023-05-17T01:05:53.455Z,500.00
2023-05-17T01:06:53.448Z,500.00
2023-05-17T01:07:53.419Z,500.00
2023-05-17T01:08:53.398Z,502.00
2023-05-17T01:09:53.382Z,503.00
2023-05-17T01:10:53.389Z,501.00
2023-05-17T01:11:53.345Z,502.00
2023-05-17T01:12:53.329Z,507.00
2023-05-17T01:13:53.313Z,501.00
2023-05-17T01:14:53.464Z,503.00
2023-05-17T01:15:53.272Z,502.00
2023-05-17T01:16:53.268Z,504.00
2023-05-17T01:17:53.293Z,504.00
2023-05-17T01:18:53.247Z,501.00
2023-05-17T01:19:53.229Z,503.00
2023-05-17T01:20:53.160Z,501.00
2023-05-17T01:21:53.147Z,503.00
2023-05-17T01:22:53.111Z,503.00
2023-05-17T01:23:53.089Z,500.00
2023-05-17T01:24:53.126Z,503.00
2023-05-17T01:25:53.045Z,500.00
2023-05-17T01:26:53.020Z,503.00
2023-05-17T01:27:53.003Z,504.00
2023-05-17T01:28:52.978Z,503.00
2023-05-17T01:29:52.962Z,505.00
2023-05-17T01:30:52.980Z,505.00
2023-05-17T01:31:52.914Z,502.00
2023-05-17T01:32:53.006Z,508.00
2023-05-17T01:33:52.956Z,502.00
2023-05-17T01:34:52.852Z,506.00
2023-05-17T01:35:52.820Z,504.00
2023-05-17T01:36:52.800Z,509.00
2023-05-17T01:37:52.781Z,502.00
2023-05-17T01:38:52.759Z,500.00
2023-05-17T01:39:52.730Z,505.00
2023-05-17T01:40:52.700Z,505.00
2023-05-17T01:41:52.742Z,500.00
2023-05-17T01:42:52.659Z,501.00
2023-05-17T01:43:52.641Z,503.00
2023-05-17T01:44:52.625Z,507.00
2023-05-17T01:45:52.601Z,502.00
2023-05-17T01:46:52.681Z,508.00
2023-05-17T01:47:52.629Z,506.00
2023-05-17T01:48:52.575Z,505.00
2023-05-17T01:49:52.598Z,503.00
2023-05-17T01:50:52.556Z,505.00
2023-05-17T01:51:52.496Z,510.00
2023-05-17T01:52:52.467Z,505.00
2023-05-17T01:53:52.454Z,503.00
2023-05-17T01:54:52.431Z,501.00
2023-05-17T01:55:52.465Z,502.00
2023-05-17T01:56:52.410Z,504.00
2023-05-17T01:57:52.402Z,506.00
2023-05-17T01:58:52.403Z,504.00
2023-05-17T01:59:52.380Z,504.00
2023-05-17T02:00:52.398Z,507.00
2023-05-17T02:01:52.351Z,501.00
2023-05-17T02:02:52.455Z,507.00
2023-05-17T02:03:52.369Z,505.00
2023-05-17T02:04:52.316Z,502.00
2023-05-17T02:05:52.304Z,510.00
2023-05-17T02:06:52.281Z,505.00
2023-05-17T02:07:52.272Z,504.00
2023-05-17T02:08:52.255Z,507.00
2023-05-17T02:09:52.253Z,502.00
2023-05-17T02:10:52.264Z,500.00
2023-05-17T02:11:52.208Z,503.00
2023-05-17T02:12:52.185Z,504.00
2023-05-17T02:13:52.174Z,501.00
2023-05-17T02:14:52.172Z,503.00
2023-05-17T02:15:52.189Z,504.00
2023-05-17T02:16:52.149Z,507.00
2023-05-17T02:17:52.188Z,503.00
2023-05-17T02:18:52.577Z,502.00
2023-05-17T02:19:52.105Z,502.00
2023-05-17T02:20:52.154Z,504.00
2023-05-17T02:21:52.079Z,502.00
2023-05-17T02:22:52.075Z,510.00
2023-05-17T02:23:52.048Z,502.00
2023-05-17T02:24:52.029Z,501.00
2023-05-17T02:25:52.011Z,502.00
2023-05-17T02:26:52.008Z,500.00
2023-05-17T02:27:51.988Z,506.00
2023-05-17T02:28:52.052Z,509.00
2023-05-17T02:29:51.960Z,509.00
2023-05-17T02:30:51.945Z,507.00
2023-05-17T02:31:51.944Z,502.00
2023-05-17T02:32:52.054Z,501.00
2023-05-17T02:33:51.952Z,503.00
2023-05-17T02:34:51.948Z,505.00
2023-05-17T02:35:51.891Z,504.00
2023-05-17T02:36:51.866Z,503.00
2023-05-17T02:37:51.854Z,501.00
2023-05-17T02:38:51.823Z,508.00
2023-05-17T02:39:51.817Z,503.00
2023-05-17T02:40:51.807Z,508.00
2023-05-17T02:41:51.810Z,502.00
2023-05-17T02:42:51.799Z,505.00
2023-05-17T02:43:51.751Z,502.00
2023-05-17T02:44:51.730Z,511.00
2023-05-17T02:45:51.707Z,504.00
2023-05-17T02:46:51.705Z,505.00
2023-05-17T02:47:51.724Z,504.00
2023-05-17T02:48:51.665Z,505.00
2023-05-17T02:49:51.634Z,506.00
2023-05-17T02:50:51.726Z,505.00
2023-05-17T02:51:51.619Z,501.00
2023-05-17T02:52:51.620Z,501.00
2023-05-17T02:53:51.597Z,503.00
2023-05-17T02:54:51.675Z,503.00
2023-05-17T02:55:51.571Z,501.00
2023-05-17T02:56:51.556Z,505.00
2023-05-17T02:57:51.546Z,502.00
2023-05-17T02:58:51.513Z,500.00
2023-05-17T02:59:51.518Z,502.00
2023-05-17T03:00:51.497Z,508.00
2023-05-17T03:01:51.466Z,503.00
2023-05-17T03:02:51.555Z,507.00
2023-05-17T03:03:51.608Z,504.00
2023-05-17T03:04:51.584Z,502.00
2023-05-17T03:05:51.457Z,507.00
2023-05-17T03:06:51.546Z,503.00
2023-05-17T03:07:51.481Z,503.00
2023-05-17T03:08:51.460Z,503.00
2023-05-17T03:09:51.435Z,505.00
2023-05-17T03:10:51.430Z,505.00
2023-05-17T03:11:51.449Z,505.00
2023-05-17T03:12:51.370Z,500.00
2023-05-17T03:13:51.373Z,501.00
2023-05-17T03:14:51.336Z,503.00
2023-05-17T03:15:51.368Z,506.00
2023-05-17T03:16:51.346Z,502.00
2023-05-17T03:17:51.352Z,506.00
2023-05-17T03:18:51.427Z,508.00
2023-05-17T03:19:51.404Z,512.00
2023-05-17T03:20:51.324Z,503.00
2023-05-17T03:21:51.284Z,504.00
2023-05-17T03:22:51.419Z,502.00
2023-05-17T03:23:51.227Z,500.00
2023-05-17T03:24:51.232Z,504.00
2023-05-17T03:25:51.216Z,501.00
2023-05-17T03:26:51.255Z,502.00
2023-05-17T03:27:51.188Z,506.00
2023-05-17T03:28:51.183Z,505.00
2023-05-17T03:29:51.167Z,504.00
2023-05-17T03:30:51.257Z,508.00
2023-05-17T03:31:51.135Z,500.00
2023-05-17T03:32:51.253Z,507.00
2023-05-17T03:33:51.299Z,503.00
2023-05-17T03:34:51.100Z,502.00
2023-05-17T03:35:51.101Z,504.00
2023-05-17T03:36:51.065Z,504.00
2023-05-17T03:37:51.049Z,504.00
2023-05-17T03:38:51.112Z,506.00
2023-05-17T03:39:51.016Z,506.00
2023-05-17T03:40:50.999Z,506.00
2023-05-17T03:41:50.990Z,502.00
2023-05-17T03:42:50.977Z,505.00
2023-05-17T03:43:50.966Z,505.00
2023-05-17T03:44:50.956Z,500.00
2023-05-17T03:45:50.966Z,501.00
2023-05-17T03:46:50.948Z,500.00
2023-05-17T03:47:50.950Z,507.00
2023-05-17T03:48:50.921Z,510.00
2023-05-17T03:49:50.885Z,505.00
2023-05-17T03:50:50.865Z,506.00
2023-05-17T03:51:50.885Z,508.00
2023-05-17T03:52:50.836Z,502.00
2023-05-17T03:53:50.817Z,505.00
2023-05-17T03:54:50.940Z,507.00
2023-05-17T03:55:50.784Z,502.00
2023-05-17T03:56:50.768Z,500.00
2023-05-17T03:57:50.798Z,505.00
2023-05-17T03:58:50.743Z,506.00
2023-05-17T03:59:50.719Z,504.00
2023-05-17T04:00:50.711Z,507.00
2023-05-17T04:01:50.688Z,503.00
2023-05-17T04:02:50.758Z,503.00
2023-05-17T04:03:50.675Z,502.00
2023-05-17T04:04:50.682Z,502.00
2023-05-17T04:05:50.621Z,508.00
2023-05-17T04:06:50.663Z,500.00
2023-05-17T04:07:50.642Z,505.00
2023-05-17T04:08:50.568Z,507.00
2023-05-17T04:09:50.552Z,504.00
2023-05-17T04:10:50.768Z,509.00
2023-05-17T04:11:50.515Z,510.00
2023-05-17T04:12:50.517Z,504.00
2023-05-17T04:13:50.477Z,501.00
2023-05-17T04:14:50.456Z,510.00
2023-05-17T04:15:50.444Z,502.00
2023-05-17T04:16:50.453Z,504.00
2023-05-17T04:17:50.521Z,503.00
2023-05-17T04:18:50.556Z,504.00
2023-05-17T04:19:50.485Z,502.00
2023-05-17T04:20:50.366Z,505.00
2023-05-17T04:21:50.344Z,502.00
2023-05-17T04:22:50.374Z,503.00
2023-05-17T04:23:50.307Z,503.00
2023-05-17T04:24:50.310Z,505.00
2023-05-17T04:25:50.266Z,504.00
2023-05-17T04:26:50.268Z,503.00
2023-05-17T04:27:50.233Z,502.00
2023-05-17T04:28:50.240Z,501.00
2023-05-17T04:29:50.208Z,501.00
2023-05-17T04:30:50.185Z,507.00
2023-05-17T04:31:50.176Z,501.00
2023-05-17T04:32:50.177Z,503.00
2023-05-17T04:33:50.136Z,501.00
2023-05-17T04:34:50.113Z,503.00
2023-05-17T04:35:50.103Z,502.00
2023-05-17T04:36:50.087Z,502.00
2023-05-17T04:37:50.067Z,501.00
2023-05-17T04:38:50.050Z,501.00
2023-05-17T04:39:50.053Z,506.00
2023-05-17T04:40:50.051Z,505.00
2023-05-17T04:41:49.988Z,505.00
2023-05-17T04:42:50.060Z,502.00
2023-05-17T04:43:49.945Z,500.00
2023-05-17T04:44:49.933Z,501.00
2023-05-17T04:45:49.914Z,503.00
2023-05-17T04:46:49.893Z,509.00
2023-05-17T04:47:49.992Z,506.00
2023-05-17T04:48:50.026Z,505.00
2023-05-17T04:49:49.852Z,505.00
2023-05-17T04:50:49.834Z,507.00
2023-05-17T04:51:49.808Z,504.00
2023-05-17T04:52:49.812Z,504.00
2023-05-17T04:53:49.774Z,502.00
2023-05-17T04:54:49.756Z,505.00
2023-05-17T04:55:49.722Z,503.00
2023-05-17T04:56:49.711Z,501.00
2023-05-17T04:57:49.696Z,500.00
2023-05-17T04:58:51.643Z,505.00
2023-05-17T04:59:49.662Z,506.00
2023-05-17T05:00:49.652Z,506.00
2023-05-17T05:01:49.622Z,506.00
2023-05-17T05:02:49.670Z,506.00
2023-05-17T05:03:49.626Z,503.00
2023-05-17T05:04:49.585Z,500.00
2023-05-17T05:05:49.551Z,506.00
2023-05-17T05:06:49.532Z,506.00
2023-05-17T05:07:49.509Z,507.00
2023-05-17T05:08:49.488Z,502.00
2023-05-17T05:09:49.487Z,502.00
2023-05-17T05:10:49.447Z,502.00
2023-05-17T05:11:49.428Z,504.00
2023-05-17T05:12:49.461Z,502.00
2023-05-17T05:13:49.393Z,502.00
2023-05-17T05:14:49.470Z,501.00
2023-05-17T05:15:49.352Z,507.00
2023-05-17T05:16:49.300Z,506.00
2023-05-17T05:17:49.422Z,507.00
2023-05-17T05:18:49.560Z,505.00
2023-05-17T05:19:49.366Z,503.00
2023-05-17T05:20:49.203Z,507.00
2023-05-17T05:21:49.209Z,506.00
2023-05-17T05:22:49.319Z,506.00
2023-05-17T05:23:49.131Z,505.00
2023-05-17T05:24:49.109Z,508.00
2023-05-17T05:25:49.130Z,513.00
2023-05-17T05:26:49.083Z,511.00
2023-05-17T05:27:49.049Z,514.00
2023-05-17T05:28:49.050Z,514.00
2023-05-17T05:29:49.314Z,515.00
2023-05-17T05:30:49.096Z,514.00
2023-05-17T05:31:48.944Z,518.00
2023-05-17T05:32:49.056Z,518.00
2023-05-17T05:33:49.299Z,516.00
2023-05-17T05:34:48.869Z,518.00
2023-05-17T05:35:48.852Z,517.00
2023-05-17T05:36:48.840Z,512.00
2023-05-17T05:37:48.926Z,513.00
2023-05-17T05:38:48.797Z,509.00
2023-05-17T05:39:48.761Z,514.00
2023-05-17T05:40:48.767Z,522.00
2023-05-17T05:41:48.715Z,527.00
2023-05-17T05:42:48.909Z,526.00
2023-05-17T05:43:48.787Z,540.00
2023-05-17T05:44:48.661Z,534.00
2023-05-17T05:45:48.652Z,531.00
2023-05-17T05:46:49.700Z,533.00
2023-05-17T05:47:48.884Z,533.00
2023-05-17T05:48:48.577Z,531.00
2023-05-17T05:49:48.547Z,532.00
2023-05-17T05:50:52.629Z,531.00
2023-05-17T05:51:48.512Z,532.00
2023-05-17T05:52:48.798Z,532.00
2023-05-17T05:53:48.467Z,533.00
2023-05-17T05:54:55.866Z,535.00
2023-05-17T05:55:56.233Z,532.00
2023-05-17T05:56:48.421Z,532.00
2023-05-17T05:57:48.428Z,537.00
2023-05-17T05:58:48.852Z,544.00
2023-05-17T05:59:48.344Z,560.00
2023-05-17T06:00:49.314Z,579.00
2023-05-17T06:01:48.292Z,582.00
2023-05-17T06:02:48.524Z,593.00
2023-05-17T06:03:48.349Z,602.00
2023-05-17T06:04:48.223Z,606.00
2023-05-17T06:05:51.455Z,628.00
2023-05-17T06:06:49.339Z,629.00
2023-05-17T06:07:48.344Z,631.00
2023-05-17T06:08:48.130Z,634.00
2023-05-17T06:09:48.129Z,642.00
2023-05-17T06:10:48.098Z,647.00
2023-05-17T06:11:48.075Z,652.00
2023-05-17T06:12:48.117Z,657.00
2023-05-17T06:13:48.235Z,678.00
2023-05-17T06:14:48.338Z,690.00
2023-05-17T06:15:48.273Z,708.00
2023-05-17T06:16:48.312Z,718.00
2023-05-17T06:17:48.452Z,732.00
2023-05-17T06:18:51.255Z,744.00
2023-05-17T06:19:48.384Z,746.00
2023-05-17T06:20:48.349Z,751.00
2023-05-17T06:21:48.328Z,762.00
2023-05-17T06:22:48.335Z,788.00
2023-05-17T06:23:48.284Z,820.00
2023-05-17T06:24:48.252Z,827.00
2023-05-17T06:25:48.337Z,843.00
2023-05-17T06:26:48.211Z,857.00
2023-05-17T06:27:49.196Z,860.00
2023-05-17T06:28:48.166Z,870.00
2023-05-17T06:29:51.324Z,881.00
2023-05-17T06:30:48.107Z,883.00
2023-05-17T06:31:48.076Z,886.00
2023-05-17T06:32:49.134Z,893.00
2023-05-17T06:33:48.027Z,917.00
2023-05-17T06:34:48.174Z,950.00
2023-05-17T06:36:47.938Z,958.00
2023-05-17T06:37:47.934Z,963.00
2023-05-17T06:38:48.311Z,974.00
2023-05-17T06:39:55.605Z,995.00
2023-05-17T06:40:47.830Z,960.00
2023-05-17T06:41:48.402Z,973.00
2023-05-17T06:42:47.854Z,990.00
2023-05-17T06:43:47.748Z,1014.00
2023-05-17T06:44:47.712Z,1061.00
2023-05-17T06:45:47.837Z,1044.00
2023-05-17T06:46:47.656Z,1030.00
2023-05-17T06:47:48.004Z,1030.00
2023-05-17T06:48:50.857Z,1030.00
2023-05-17T06:49:47.616Z,1032.00
2023-05-17T06:50:47.647Z,1032.00
2023-05-17T06:51:47.532Z,1032.00
2023-05-17T06:52:47.504Z,1024.00
2023-05-17T06:56:03.039Z,1033.00
2023-05-17T06:56:50.571Z,1034.00
2023-05-17T06:57:47.350Z,1034.00
2023-05-17T06:59:54.653Z,1033.00
2023-05-17T07:00:50.468Z,1035.00
2023-05-17T07:02:03.443Z,1035.00
2023-05-17T07:02:48.361Z,1035.00
2023-05-17T07:03:48.304Z,1034.00
2023-05-17T07:06:47.232Z,1034.00
2023-05-17T07:07:47.608Z,1042.00
2023-05-17T07:08:54.380Z,1048.00
2023-05-17T07:09:46.926Z,1033.00
2023-05-17T07:10:46.907Z,1040.00
2023-05-17T07:11:46.901Z,1039.00
2023-05-17T07:12:46.864Z,1033.00
2023-05-17T07:13:46.979Z,1037.00
2023-05-17T07:14:46.787Z,1026.00
2023-05-17T07:15:46.767Z,1019.00
2023-05-17T07:16:46.755Z,999.00
2023-05-17T07:17:46.815Z,1016.00
2023-05-17T07:18:47.456Z,1008.00
2023-05-17T07:19:46.771Z,1010.00
2023-05-17T07:20:47.330Z,995.00
2023-05-17T07:21:46.593Z,1007.00
2023-05-17T07:22:46.664Z,989.00
2023-05-17T07:23:46.832Z,994.00
2023-05-17T07:24:46.516Z,993.00
2023-05-17T07:25:46.520Z,984.00
2023-05-17T07:26:46.483Z,983.00
2023-05-17T07:27:46.417Z,974.00
2023-05-17T07:28:46.391Z,979.00
2023-05-17T07:29:46.847Z,965.00
2023-05-17T07:30:46.353Z,957.00
2023-05-17T07:31:46.304Z,967.00
2023-05-17T07:32:46.960Z,967.00
2023-05-17T07:33:46.417Z,958.00
2023-05-17T07:34:46.479Z,950.00
2023-05-17T07:35:46.934Z,950.00
2023-05-17T07:36:46.476Z,951.00
2023-05-17T07:37:46.522Z,943.00
2023-05-17T07:38:54.024Z,903.00
2023-05-17T07:39:50.058Z,905.00
2023-05-17T07:40:46.499Z,907.00
2023-05-17T07:41:46.552Z,914.00
2023-05-17T07:42:46.410Z,925.00
2023-05-17T07:43:47.837Z,948.00
2023-05-17T07:44:47.425Z,989.00
2023-05-17T07:45:47.431Z,1004.00
2023-05-17T07:46:46.528Z,1011.00
2023-05-17T07:47:46.595Z,1012.00
2023-05-17T07:48:47.990Z,1024.00
2023-05-17T07:49:47.646Z,1031.00
2023-05-17T07:50:46.748Z,1042.00
2023-05-17T07:51:46.687Z,1072.00
2023-05-17T07:52:46.741Z,1077.00
2023-05-17T07:55:02.381Z,1066.00
2023-05-17T07:56:46.681Z,1068.00
2023-05-17T07:57:46.899Z,1073.00
2023-05-17T07:58:46.621Z,1071.00
2023-05-17T07:59:46.575Z,1067.00
2023-05-17T08:00:47.566Z,1052.00
2023-05-17T08:01:47.532Z,1050.00
2023-05-17T08:04:18.344Z,1049.00
2023-05-17T08:04:46.449Z,1050.00
2023-05-17T08:05:53.840Z,1054.00
2023-05-17T08:06:46.354Z,1050.00
2023-05-17T08:07:46.385Z,1057.00
2023-05-17T08:08:46.273Z,1052.00
2023-05-17T08:09:45.258Z,1048.00
2023-05-17T08:10:46.356Z,1049.00
2023-05-17T08:11:46.259Z,1055.00
2023-05-17T08:12:46.426Z,1045.00
2023-05-17T08:13:46.095Z,1038.00
2023-05-17T08:14:46.076Z,1031.00
2023-05-17T08:15:46.027Z,1029.00
2023-05-17T08:16:45.994Z,1025.00
2023-05-17T08:17:46.505Z,1028.00
2023-05-17T08:18:46.100Z,1036.00
2023-05-17T08:19:47.033Z,1016.00
2023-05-17T08:20:45.864Z,1030.00
2023-05-17T08:21:45.832Z,1018.00
2023-05-17T08:22:45.907Z,1020.00
2023-05-17T08:23:45.759Z,1013.00
2023-05-17T08:24:46.728Z,1008.00
2023-05-17T08:25:45.709Z,997.00
2023-05-17T08:26:45.702Z,1003.00
2023-05-17T08:27:45.884Z,1004.00
2023-05-17T08:28:45.634Z,986.00
2023-05-17T08:29:45.663Z,982.00
2023-05-17T08:30:45.672Z,991.00
2023-05-17T08:31:45.670Z,984.00
2023-05-17T08:32:46.000Z,993.00
2023-05-17T08:33:45.891Z,993.00
2023-05-17T08:34:45.632Z,975.00
2023-05-17T08:35:48.882Z,971.00
2023-05-17T08:36:45.947Z,972.00
2023-05-17T08:37:45.549Z,972.00
2023-05-17T08:38:45.547Z,975.00
2023-05-17T08:39:45.562Z,964.00
2023-05-17T08:40:45.449Z,973.00
2023-05-17T08:41:46.178Z,966.00
2023-05-17T08:42:46.543Z,960.00
2023-05-17T08:43:46.860Z,978.00
2023-05-17T08:44:45.388Z,967.00
2023-05-17T08:45:45.880Z,965.00
2023-05-17T08:46:45.367Z,958.00
2023-05-17T08:47:45.933Z,960.00
2023-05-17T08:48:45.459Z,957.00
2023-05-17T08:49:46.998Z,940.00
2023-05-17T08:50:45.408Z,966.00
2023-05-17T08:51:48.502Z,946.00
2023-05-17T08:52:45.395Z,948.00
2023-05-17T08:53:45.253Z,949.00
2023-05-17T08:54:45.468Z,950.00
2023-05-17T08:55:45.191Z,946.00
2023-05-17T08:56:45.171Z,943.00
2023-05-17T08:57:45.363Z,945.00
2023-05-17T08:58:56.632Z,936.00
2023-05-17T08:59:45.091Z,938.00
2023-05-17T09:00:45.218Z,943.00
2023-05-17T09:01:45.067Z,942.00
2023-05-17T09:02:45.132Z,948.00
2023-05-17T09:03:45.214Z,939.00
2023-05-17T09:04:45.109Z,940.00
2023-05-17T09:05:44.951Z,929.00
2023-05-17T09:06:44.939Z,930.00
2023-05-17T09:07:44.880Z,927.00
2023-05-17T09:08:44.870Z,928.00
2023-05-17T09:09:44.866Z,922.00
2023-05-17T09:10:44.810Z,903.00
2023-05-17T09:11:44.777Z,920.00
2023-05-17T09:12:44.739Z,908.00
2023-05-17T09:13:44.726Z,921.00
2023-05-17T09:14:44.728Z,896.00
2023-05-17T09:15:44.654Z,904.00
2023-05-17T09:16:44.628Z,905.00
2023-05-17T09:17:44.918Z,907.00
2023-05-17T09:18:45.051Z,881.00
2023-05-17T09:19:44.819Z,898.00
2023-05-17T09:20:44.571Z,896.00
2023-05-17T09:21:44.509Z,895.00
2023-05-17T09:22:44.506Z,889.00
2023-05-17T09:23:51.449Z,891.00
2023-05-17T09:24:44.444Z,894.00
2023-05-17T09:25:44.458Z,896.00
2023-05-17T09:26:44.663Z,893.00
2023-05-17T09:27:44.417Z,897.00
2023-05-17T09:28:44.398Z,890.00
2023-05-17T09:29:44.414Z,931.00
2023-05-17T09:30:44.392Z,600.00
2023-05-17T09:31:44.337Z,429.00
2023-05-17T09:32:58.936Z,400.00
2023-05-17T09:33:44.336Z,400.00
2023-05-17T09:34:44.400Z,400.00
2023-05-17T09:35:44.320Z,400.00
2023-05-17T09:36:44.394Z,400.00
2023-05-17T09:37:44.394Z,400.00
2023-05-17T09:38:44.379Z,400.00
2023-05-17T09:39:44.300Z,400.00
2023-05-17T09:40:44.342Z,409.00
2023-05-17T09:41:44.475Z,467.00
2023-05-17T09:42:44.411Z,499.00
2023-05-17T09:43:44.387Z,500.00
2023-05-17T09:44:44.322Z,504.00
2023-05-17T09:45:44.361Z,503.00
2023-05-17T09:46:44.406Z,501.00
2023-05-17T09:47:44.938Z,587.00
2023-05-17T09:48:44.522Z,576.00
2023-05-17T09:49:44.902Z,600.00
2023-05-17T09:50:44.522Z,604.00
2023-05-17T09:51:44.545Z,616.00
2023-05-17T09:52:44.561Z,636.00
2023-05-17T09:53:44.994Z,655.00
2023-05-17T09:54:44.671Z,700.00
2023-05-17T09:55:44.706Z,751.00
2023-05-17T09:56:44.717Z,778.00
2023-05-17T09:57:44.712Z,795.00
2023-05-17T09:58:44.889Z,823.00
2023-05-17T09:59:44.694Z,847.00
2023-05-17T10:00:44.746Z,865.00
2023-05-17T10:01:44.813Z,896.00
2023-05-17T10:02:44.923Z,905.00
2023-05-17T10:03:44.975Z,956.00
2023-05-17T10:04:44.933Z,970.00
2023-05-17T10:05:44.885Z,1002.00
2023-05-17T10:06:48.093Z,1012.00
2023-05-17T10:07:44.881Z,1014.00
2023-05-17T10:08:44.842Z,1024.00
2023-05-17T10:09:44.835Z,1040.00
2023-05-17T10:10:44.808Z,1076.00
2023-05-17T10:11:44.778Z,1118.00
2023-05-17T10:12:44.754Z,1144.00
2023-05-17T10:13:44.735Z,1188.00
2023-05-17T10:14:44.933Z,1220.00
2023-05-17T10:15:47.388Z,1245.00
2023-05-17T10:16:44.653Z,1248.00
2023-05-17T10:17:45.735Z,1258.00
2023-05-17T10:18:45.017Z,1284.00
2023-05-17T10:19:44.767Z,1323.00
2023-05-17T10:20:44.551Z,1399.00
2023-05-17T10:21:44.516Z,1413.00
2023-05-17T10:22:44.519Z,1442.00
2023-05-17T10:23:44.914Z,1462.00
2023-05-17T10:24:44.902Z,1507.00
2023-05-17T10:25:44.421Z,1512.00
2023-05-17T10:26:44.434Z,1549.00
2023-05-17T10:27:44.436Z,1584.00
2023-05-17T10:28:45.398Z,1566.00
2023-05-17T10:29:45.980Z,1562.00
2023-05-17T10:30:44.423Z,1564.00
2023-05-17T10:31:44.397Z,1569.00
2023-05-17T10:32:44.519Z,1586.00
2023-05-17T10:33:44.407Z,1620.00
2023-05-17T10:34:45.809Z,1671.00
2023-05-17T10:35:44.278Z,1567.00
2023-05-17T10:36:44.345Z,1586.00
2023-05-17T10:37:44.206Z,1616.00
2023-05-17T10:38:44.419Z,1654.00
2023-05-17T10:39:44.144Z,1725.00
2023-05-17T10:40:44.117Z,1755.00
2023-05-17T10:41:44.080Z,1755.00
2023-05-17T10:42:44.049Z,1763.00
2023-05-17T10:43:44.026Z,1786.00
2023-05-17T10:44:43.995Z,1787.00
2023-05-17T10:45:43.959Z,1809.00
2023-05-17T10:46:43.912Z,1824.00
2023-05-17T10:47:43.926Z,1817.00
2023-05-17T10:48:43.961Z,1830.00
2023-05-17T10:49:43.820Z,1842.00
2023-05-17T10:50:54.404Z,1847.00
2023-05-17T10:51:43.757Z,1849.00
2023-05-17T10:52:43.719Z,1858.00
2023-05-17T10:53:43.904Z,1868.00
2023-05-17T10:54:43.664Z,1886.00
2023-05-17T10:55:43.910Z,1909.00
2023-05-17T10:56:43.571Z,1917.00
2023-05-17T10:57:51.037Z,1934.00
2023-05-17T10:58:43.658Z,1937.00
2023-05-17T10:59:43.485Z,1944.00
2023-05-17T11:00:43.450Z,1953.00
2023-05-17T11:01:43.411Z,1962.00
2023-05-17T11:02:44.445Z,1985.00
2023-05-17T11:03:43.350Z,2005.00
2023-05-17T11:04:43.434Z,1997.00
2023-05-17T11:05:43.438Z,2015.00
2023-05-17T11:06:43.307Z,2018.00
2023-05-17T11:07:43.202Z,2021.00
2023-05-17T11:08:43.409Z,2033.00
2023-05-17T11:09:43.136Z,2043.00
2023-05-17T11:10:43.105Z,2050.00
2023-05-17T11:11:43.077Z,2061.00
2023-05-17T11:12:43.063Z,2063.00
2023-05-17T11:13:43.411Z,2047.00
2023-05-17T11:14:42.972Z,2049.00
2023-05-17T11:15:42.932Z,2045.00
2023-05-17T11:16:42.898Z,2047.00
2023-05-17T11:17:42.944Z,2058.00
2023-05-17T11:18:43.527Z,2041.00
2023-05-17T11:19:43.048Z,2045.00
2023-05-17T11:20:42.933Z,2030.00
2023-05-17T11:21:42.815Z,2033.00
2023-05-17T11:22:43.452Z,2026.00
2023-05-17T11:23:42.812Z,2009.00
2023-05-17T11:24:42.803Z,2015.00
2023-05-17T11:25:42.807Z,1991.00
2023-05-17T11:26:42.815Z,1979.00
2023-05-17T11:27:42.822Z,1987.00
2023-05-17T11:28:42.847Z,1982.00
2023-05-17T11:29:42.850Z,1972.00
2023-05-17T11:30:42.874Z,1959.00
2023-05-17T11:31:42.873Z,1946.00
2023-05-17T11:32:42.941Z,1929.00
2023-05-17T11:33:43.006Z,1926.00
2023-05-17T11:34:42.942Z,1903.00
2023-05-17T11:35:42.943Z,1888.00
2023-05-17T11:36:42.955Z,1892.00
2023-05-17T11:37:42.967Z,1876.00
2023-05-17T11:38:43.012Z,1869.00
2023-05-17T11:39:42.993Z,1868.00
2023-05-17T11:40:43.033Z,1874.00
2023-05-17T11:41:43.029Z,1865.00
2023-05-17T11:42:43.054Z,1867.00
2023-05-17T11:43:43.077Z,1863.00
2023-05-17T11:44:46.297Z,1875.00
2023-05-17T11:45:43.052Z,1876.00
2023-05-17T11:46:43.021Z,1877.00
2023-05-17T11:47:43.113Z,1877.00
2023-05-17T11:48:43.099Z,1885.00
2023-05-17T11:49:42.932Z,1901.00
2023-05-17T11:50:42.893Z,1911.00
2023-05-17T11:51:42.885Z,1914.00
2023-05-17T11:52:42.811Z,1918.00
2023-05-17T11:53:42.775Z,1932.00
2023-05-17T11:54:42.781Z,1953.00
2023-05-17T11:55:42.709Z,1933.00
2023-05-17T11:56:43.793Z,1939.00
2023-05-17T11:57:42.642Z,1958.00
2023-05-17T11:58:42.932Z,1961.00
2023-05-17T11:59:42.592Z,1958.00
2023-05-17T12:00:42.549Z,1977.00
2023-05-17T12:01:42.511Z,1962.00
2023-05-17T12:02:42.532Z,1985.00
2023-05-17T12:03:42.497Z,1982.00
2023-05-17T12:04:42.559Z,1994.00
2023-05-17T12:05:45.550Z,1994.00
2023-05-17T12:06:42.702Z,1995.00
2023-05-17T12:07:42.455Z,2001.00
2023-05-17T12:08:42.466Z,2008.00
2023-05-17T12:09:42.427Z,2042.00
2023-05-17T12:10:42.369Z,2076.00
2023-05-17T12:11:42.306Z,2090.00
2023-05-17T12:12:42.270Z,2101.00
2023-05-17T12:13:42.259Z,2122.00
2023-05-17T12:14:42.198Z,2157.00
2023-05-17T12:15:42.164Z,2179.00
2023-05-17T12:16:42.440Z,2199.00
2023-05-17T12:17:42.198Z,2206.00
2023-05-17T12:18:42.320Z,2206.00
2023-05-17T12:19:42.285Z,2233.00
2023-05-17T12:20:42.004Z,2247.00
2023-05-17T12:21:41.951Z,2255.00
2023-05-17T12:22:41.921Z,2264.00
2023-05-17T12:23:41.947Z,2273.00
2023-05-17T12:24:41.916Z,2275.00
2023-05-17T12:25:41.836Z,2296.00
2023-05-17T12:26:41.837Z,2301.00
2023-05-17T12:27:41.758Z,2306.00
2023-05-17T12:28:41.728Z,2315.00
2023-05-17T12:29:41.695Z,2340.00
2023-05-17T12:30:41.661Z,2353.00